sensor_id;sensor_type;location;lat;lon;timestamp;P1;durP1;ratioP1;P2;durP2;ratioP2
68250;SDS011;55066;51.560;4.642;2023-05-10T00:01:05;26.77;;;12.07;;
68250;SDS011;55066;51.560;4.642;2023-05-10T00:03:32;31.43;;;12.83;;
68250;SDS011;55066;51.560;4.642;2023-05-10T00:05:59;31.92;;;13.27;;
68250;SDS011;55066;51.560;4.642;2023-05-10T00:08:24;30.20;;;12.90;;
68250;SDS011;55066;51.560;4.642;2023-05-10T00:10:51;29.05;;;12.00;;
68250;SDS011;55066;51.560;4.642;2023-05-10T00:13:17;29.90;;;13.43;;
68250;SDS011;55066;51.560;4.642;2023-05-10T00:15:42;31.90;;;14.47;;
68250;SDS011;55066;51.560;4.642;2023-05-10T00:18:08;37.93;;;15.10;;
68250;SDS011;55066;51.560;4.642;2023-05-10T00:20:33;35.13;;;14.02;;
68250;SDS011;55066;51.560;4.642;2023-05-10T00:22:58;37.27;;;15.23;;
68250;SDS011;55066;51.560;4.642;2023-05-10T00:25:24;36.90;;;15.87;;
68250;SDS011;55066;51.560;4.642;2023-05-10T00:27:50;48.47;;;17.58;;
68250;SDS011;55066;51.560;4.642;2023-05-10T00:30:16;49.80;;;18.43;;
68250;SDS011;55066;51.560;4.642;2023-05-10T00:32:41;47.53;;;17.70;;
68250;SDS011;55066;51.560;4.642;2023-05-10T00:35:08;28.67;;;11.98;;
68250;SDS011;55066;51.560;4.642;2023-05-10T00:37:34;43.03;;;17.47;;
68250;SDS011;55066;51.560;4.642;2023-05-10T00:40:00;44.90;;;17.27;;
68250;SDS011;55066;51.560;4.642;2023-05-10T00:42:26;52.60;;;18.70;;
68250;SDS011;55066;51.560;4.642;2023-05-10T00:44:55;60.33;;;20.67;;
68250;SDS011;55066;51.560;4.642;2023-05-10T00:47:23;65.70;;;20.17;;
68250;SDS011;55066;51.560;4.642;2023-05-10T00:49:48;63.37;;;20.03;;
68250;SDS011;55066;51.560;4.642;2023-05-10T00:52:14;63.75;;;20.55;;
68250;SDS011;55066;51.560;4.642;2023-05-10T00:54:41;65.90;;;19.27;;
68250;SDS011;55066;51.560;4.642;2023-05-10T00:57:08;62.87;;;19.20;;
68250;SDS011;55066;51.560;4.642;2023-05-10T00:59:35;58.17;;;19.15;;
68250;SDS011;55066;51.560;4.642;2023-05-10T01:02:01;56.88;;;18.55;;
68250;SDS011;55066;51.560;4.642;2023-05-10T01:04:28;51.57;;;18.47;;
68250;SDS011;55066;51.560;4.642;2023-05-10T01:06:56;56.45;;;18.40;;
68250;SDS011;55066;51.560;4.642;2023-05-10T01:09:23;54.25;;;18.25;;
68250;SDS011;55066;51.560;4.642;2023-05-10T01:11:51;57.08;;;17.23;;
68250;SDS011;55066;51.560;4.642;2023-05-10T01:14:18;47.95;;;17.60;;
68250;SDS011;55066;51.560;4.642;2023-05-10T01:16:46;50.83;;;16.83;;
68250;SDS011;55066;51.560;4.642;2023-05-10T01:19:20;47.03;;;16.35;;
68250;SDS011;55066;51.560;4.642;2023-05-10T01:22:11;53.45;;;16.52;;
68250;SDS011;55066;51.560;4.642;2023-05-10T01:31:18;43.07;;;15.10;;
68250;SDS011;55066;51.560;4.642;2023-05-10T01:34:09;37.88;;;14.00;;
68250;SDS011;55066;51.560;4.642;2023-05-10T01:36:48;42.60;;;14.25;;
68250;SDS011;55066;51.560;4.642;2023-05-10T01:42:39;40.50;;;13.63;;
68250;SDS011;55066;51.560;4.642;2023-05-10T01:45:22;42.07;;;13.40;;
68250;SDS011;55066;51.560;4.642;2023-05-10T01:47:54;41.33;;;13.95;;
68250;SDS011;55066;51.560;4.642;2023-05-10T01:50:35;38.65;;;13.73;;
68250;SDS011;55066;51.560;4.642;2023-05-10T01:53:05;48.05;;;14.35;;
68250;SDS011;55066;51.560;4.642;2023-05-10T01:55:34;45.88;;;14.70;;
68250;SDS011;55066;51.560;4.642;2023-05-10T01:58:09;47.73;;;15.30;;
68250;SDS011;55066;51.560;4.642;2023-05-10T02:00:39;43.20;;;13.88;;
68250;SDS011;55066;51.560;4.642;2023-05-10T02:03:11;38.65;;;13.88;;
68250;SDS011;55066;51.560;4.642;2023-05-10T02:05:39;42.83;;;14.15;;
68250;SDS011;55066;51.560;4.642;2023-05-10T02:08:07;40.55;;;13.35;;
68250;SDS011;55066;51.560;4.642;2023-05-10T02:10:35;47.20;;;14.20;;
68250;SDS011;55066;51.560;4.642;2023-05-10T02:13:02;42.15;;;14.23;;
68250;SDS011;55066;51.560;4.642;2023-05-10T02:15:31;43.38;;;13.18;;
68250;SDS011;55066;51.560;4.642;2023-05-10T02:17:57;38.58;;;13.45;;
68250;SDS011;55066;51.560;4.642;2023-05-10T02:20:26;46.53;;;13.70;;
68250;SDS011;55066;51.560;4.642;2023-05-10T02:22:54;43.73;;;14.63;;
68250;SDS011;55066;51.560;4.642;2023-05-10T02:25:23;47.67;;;14.57;;
68250;SDS011;55066;51.560;4.642;2023-05-10T02:27:52;46.88;;;14.52;;
68250;SDS011;55066;51.560;4.642;2023-05-10T02:30:23;40.03;;;13.82;;
68250;SDS011;55066;51.560;4.642;2023-05-10T02:32:50;42.22;;;13.77;;
68250;SDS011;55066;51.560;4.642;2023-05-10T02:35:17;43.23;;;15.27;;
68250;SDS011;55066;51.560;4.642;2023-05-10T02:37:44;46.30;;;15.32;;
68250;SDS011;55066;51.560;4.642;2023-05-10T02:40:11;47.90;;;15.75;;
68250;SDS011;55066;51.560;4.642;2023-05-10T02:42:39;49.13;;;14.50;;
68250;SDS011;55066;51.560;4.642;2023-05-10T02:45:08;43.47;;;15.07;;
68250;SDS011;55066;51.560;4.642;2023-05-10T02:47:37;38.80;;;14.67;;
68250;SDS011;55066;51.560;4.642;2023-05-10T02:50:03;42.97;;;14.98;;
68250;SDS011;55066;51.560;4.642;2023-05-10T02:52:44;35.30;;;12.75;;
68250;SDS011;55066;51.560;4.642;2023-05-10T02:55:12;43.65;;;14.55;;
68250;SDS011;55066;51.560;4.642;2023-05-10T02:57:43;41.85;;;13.73;;
68250;SDS011;55066;51.560;4.642;2023-05-10T03:00:13;38.20;;;13.45;;
68250;SDS011;55066;51.560;4.642;2023-05-10T03:02:39;42.38;;;14.23;;
68250;SDS011;55066;51.560;4.642;2023-05-10T03:05:04;37.27;;;13.20;;
68250;SDS011;55066;51.560;4.642;2023-05-10T03:07:30;40.33;;;14.33;;
68250;SDS011;55066;51.560;4.642;2023-05-10T03:09:56;36.15;;;12.60;;
68250;SDS011;55066;51.560;4.642;2023-05-10T03:18:07;34.75;;;13.40;;
68250;SDS011;55066;51.560;4.642;2023-05-10T03:20:38;40.92;;;14.55;;
68250;SDS011;55066;51.560;4.642;2023-05-10T03:23:11;39.78;;;13.48;;
68250;SDS011;55066;51.560;4.642;2023-05-10T03:25:45;35.95;;;12.85;;
68250;SDS011;55066;51.560;4.642;2023-05-10T03:28:13;39.33;;;14.35;;
68250;SDS011;55066;51.560;4.642;2023-05-10T03:30:41;51.05;;;15.35;;
68250;SDS011;55066;51.560;4.642;2023-05-10T03:33:10;41.72;;;14.73;;
68250;SDS011;55066;51.560;4.642;2023-05-10T03:35:40;46.00;;;14.85;;
68250;SDS011;55066;51.560;4.642;2023-05-10T03:38:06;39.07;;;14.40;;
68250;SDS011;55066;51.560;4.642;2023-05-10T03:40:31;42.25;;;14.73;;
68250;SDS011;55066;51.560;4.642;2023-05-10T03:42:58;42.80;;;14.80;;
68250;SDS011;55066;51.560;4.642;2023-05-10T03:45:24;33.08;;;10.90;;
68250;SDS011;55066;51.560;4.642;2023-05-10T03:47:49;35.30;;;12.85;;
68250;SDS011;55066;51.560;4.642;2023-05-10T03:50:15;27.67;;;12.60;;
68250;SDS011;55066;51.560;4.642;2023-05-10T03:52:41;35.73;;;13.43;;
68250;SDS011;55066;51.560;4.642;2023-05-10T03:55:09;32.78;;;12.85;;
68250;SDS011;55066;51.560;4.642;2023-05-10T03:57:37;27.73;;;11.20;;
68250;SDS011;55066;51.560;4.642;2023-05-10T04:00:05;26.73;;;12.45;;
68250;SDS011;55066;51.560;4.642;2023-05-10T04:02:39;32.83;;;12.07;;
68250;SDS011;55066;51.560;4.642;2023-05-10T04:05:05;38.50;;;13.40;;
68250;SDS011;55066;51.560;4.642;2023-05-10T04:07:32;31.30;;;12.90;;
68250;SDS011;55066;51.560;4.642;2023-05-10T04:09:59;31.92;;;12.77;;
68250;SDS011;55066;51.560;4.642;2023-05-10T04:12:24;31.20;;;12.80;;
68250;SDS011;55066;51.560;4.642;2023-05-10T04:14:50;34.08;;;13.10;;
68250;SDS011;55066;51.560;4.642;2023-05-10T04:17:16;37.50;;;12.93;;
68250;SDS011;55066;51.560;4.642;2023-05-10T04:19:43;42.00;;;14.90;;
68250;SDS011;55066;51.560;4.642;2023-05-10T04:22:08;33.37;;;13.80;;
68250;SDS011;55066;51.560;4.642;2023-05-10T04:24:36;40.70;;;14.20;;
68250;SDS011;55066;51.560;4.642;2023-05-10T04:27:02;36.80;;;15.07;;
68250;SDS011;55066;51.560;4.642;2023-05-10T04:29:27;35.33;;;14.30;;
68250;SDS011;55066;51.560;4.642;2023-05-10T04:31:53;38.63;;;15.47;;
68250;SDS011;55066;51.560;4.642;2023-05-10T04:34:20;47.92;;;16.30;;
68250;SDS011;55066;51.560;4.642;2023-05-10T04:36:46;42.75;;;17.15;;
68250;SDS011;55066;51.560;4.642;2023-05-10T04:39:11;46.67;;;17.67;;
68250;SDS011;55066;51.560;4.642;2023-05-10T04:41:37;41.73;;;16.77;;
68250;SDS011;55066;51.560;4.642;2023-05-10T04:44:03;50.17;;;19.23;;
68250;SDS011;55066;51.560;4.642;2023-05-10T04:46:28;46.07;;;18.20;;
68250;SDS011;55066;51.560;4.642;2023-05-10T04:48:54;44.17;;;15.73;;
68250;SDS011;55066;51.560;4.642;2023-05-10T04:51:19;50.07;;;17.23;;
68250;SDS011;55066;51.560;4.642;2023-05-10T04:53:45;42.58;;;17.95;;
68250;SDS011;55066;51.560;4.642;2023-05-10T04:56:10;46.03;;;16.53;;
68250;SDS011;55066;51.560;4.642;2023-05-10T04:58:36;42.17;;;15.98;;
68250;SDS011;55066;51.560;4.642;2023-05-10T05:01:05;34.20;;;13.43;;
68250;SDS011;55066;51.560;4.642;2023-05-10T05:03:32;34.08;;;13.80;;
68250;SDS011;55066;51.560;4.642;2023-05-10T05:05:57;28.40;;;10.80;;
68250;SDS011;55066;51.560;4.642;2023-05-10T05:08:23;30.00;;;12.60;;
68250;SDS011;55066;51.560;4.642;2023-05-10T05:10:49;32.70;;;12.70;;
68250;SDS011;55066;51.560;4.642;2023-05-10T05:13:15;38.00;;;12.63;;
68250;SDS011;55066;51.560;4.642;2023-05-10T05:15:41;28.60;;;11.37;;
68250;SDS011;55066;51.560;4.642;2023-05-10T05:18:10;26.38;;;11.30;;
68250;SDS011;55066;51.560;4.642;2023-05-10T05:20:35;23.20;;;9.43;;
68250;SDS011;55066;51.560;4.642;2023-05-10T05:23:01;21.80;;;8.17;;
68250;SDS011;55066;51.560;4.642;2023-05-10T05:25:27;21.35;;;8.32;;
68250;SDS011;55066;51.560;4.642;2023-05-10T05:27:54;18.30;;;7.45;;
68250;SDS011;55066;51.560;4.642;2023-05-10T05:30:20;17.67;;;7.00;;
68250;SDS011;55066;51.560;4.642;2023-05-10T05:32:45;19.33;;;7.67;;
68250;SDS011;55066;51.560;4.642;2023-05-10T05:35:13;13.88;;;6.03;;
68250;SDS011;55066;51.560;4.642;2023-05-10T05:37:38;13.97;;;6.10;;
68250;SDS011;55066;51.560;4.642;2023-05-10T05:40:04;19.55;;;6.30;;
68250;SDS011;55066;51.560;4.642;2023-05-10T05:42:31;16.90;;;6.22;;
68250;SDS011;55066;51.560;4.642;2023-05-10T05:44:56;15.00;;;5.80;;
68250;SDS011;55066;51.560;4.642;2023-05-10T05:47:23;14.83;;;6.00;;
68250;SDS011;55066;51.560;4.642;2023-05-10T05:49:51;13.20;;;5.13;;
68250;SDS011;55066;51.560;4.642;2023-05-10T05:52:17;13.80;;;5.60;;
68250;SDS011;55066;51.560;4.642;2023-05-10T05:54:42;16.45;;;5.35;;
68250;SDS011;55066;51.560;4.642;2023-05-10T05:57:09;14.30;;;5.80;;
68250;SDS011;55066;51.560;4.642;2023-05-10T05:59:36;11.73;;;4.70;;
68250;SDS011;55066;51.560;4.642;2023-05-10T06:02:08;14.35;;;5.05;;
68250;SDS011;55066;51.560;4.642;2023-05-10T06:04:35;13.68;;;5.28;;
68250;SDS011;55066;51.560;4.642;2023-05-10T06:07:00;10.80;;;3.72;;
68250;SDS011;55066;51.560;4.642;2023-05-10T06:09:26;12.05;;;4.90;;
68250;SDS011;55066;51.560;4.642;2023-05-10T06:11:52;14.63;;;4.35;;
68250;SDS011;55066;51.560;4.642;2023-05-10T06:14:19;13.50;;;4.20;;
68250;SDS011;55066;51.560;4.642;2023-05-10T06:16:45;12.57;;;4.95;;
68250;SDS011;55066;51.560;4.642;2023-05-10T06:19:12;9.50;;;4.65;;
68250;SDS011;55066;51.560;4.642;2023-05-10T06:21:38;9.77;;;5.07;;
68250;SDS011;55066;51.560;4.642;2023-05-10T06:24:05;13.75;;;5.65;;
68250;SDS011;55066;51.560;4.642;2023-05-10T06:26:31;12.65;;;5.70;;
68250;SDS011;55066;51.560;4.642;2023-05-10T06:28:58;9.82;;;4.65;;
68250;SDS011;55066;51.560;4.642;2023-05-10T06:31:24;12.15;;;5.15;;
68250;SDS011;55066;51.560;4.642;2023-05-10T06:33:49;13.03;;;5.23;;
68250;SDS011;55066;51.560;4.642;2023-05-10T06:36:20;14.03;;;5.30;;
68250;SDS011;55066;51.560;4.642;2023-05-10T06:38:51;15.52;;;5.40;;
68250;SDS011;55066;51.560;4.642;2023-05-10T06:41:16;13.80;;;5.32;;
68250;SDS011;55066;51.560;4.642;2023-05-10T06:43:41;13.47;;;5.67;;
68250;SDS011;55066;51.560;4.642;2023-05-10T06:46:08;13.82;;;5.75;;
68250;SDS011;55066;51.560;4.642;2023-05-10T06:48:33;13.17;;;6.10;;
68250;SDS011;55066;51.560;4.642;2023-05-10T06:50:59;14.13;;;6.00;;
68250;SDS011;55066;51.560;4.642;2023-05-10T06:53:25;17.57;;;5.87;;
68250;SDS011;55066;51.560;4.642;2023-05-10T06:55:52;12.02;;;5.78;;
68250;SDS011;55066;51.560;4.642;2023-05-10T06:58:18;12.57;;;6.23;;
68250;SDS011;55066;51.560;4.642;2023-05-10T07:00:43;17.48;;;6.18;;
68250;SDS011;55066;51.560;4.642;2023-05-10T07:03:10;13.88;;;6.68;;
68250;SDS011;55066;51.560;4.642;2023-05-10T07:05:36;15.87;;;6.70;;
68250;SDS011;55066;51.560;4.642;2023-05-10T07:08:01;18.48;;;7.18;;
68250;SDS011;55066;51.560;4.642;2023-05-10T07:10:27;17.70;;;6.77;;
68250;SDS011;55066;51.560;4.642;2023-05-10T07:12:52;17.50;;;6.67;;
68250;SDS011;55066;51.560;4.642;2023-05-10T07:15:18;14.57;;;6.60;;
68250;SDS011;55066;51.560;4.642;2023-05-10T07:17:44;18.57;;;7.17;;
68250;SDS011;55066;51.560;4.642;2023-05-10T07:20:10;15.05;;;6.75;;
68250;SDS011;55066;51.560;4.642;2023-05-10T07:22:39;15.25;;;7.30;;
68250;SDS011;55066;51.560;4.642;2023-05-10T07:25:05;19.77;;;7.13;;
68250;SDS011;55066;51.560;4.642;2023-05-10T07:27:31;17.02;;;8.25;;
68250;SDS011;55066;51.560;4.642;2023-05-10T07:29:57;17.23;;;7.93;;
68250;SDS011;55066;51.560;4.642;2023-05-10T07:32:26;16.25;;;7.78;;
68250;SDS011;55066;51.560;4.642;2023-05-10T07:34:55;17.10;;;7.90;;
68250;SDS011;55066;51.560;4.642;2023-05-10T07:37:22;16.60;;;6.70;;
68250;SDS011;55066;51.560;4.642;2023-05-10T07:39:55;18.38;;;7.65;;
68250;SDS011;55066;51.560;4.642;2023-05-10T07:42:21;17.05;;;7.45;;
68250;SDS011;55066;51.560;4.642;2023-05-10T07:44:46;15.63;;;7.23;;
68250;SDS011;55066;51.560;4.642;2023-05-10T07:47:12;16.77;;;6.47;;
68250;SDS011;55066;51.560;4.642;2023-05-10T07:49:37;14.13;;;6.57;;
68250;SDS011;55066;51.560;4.642;2023-05-10T07:52:03;13.33;;;6.67;;
68250;SDS011;55066;51.560;4.642;2023-05-10T07:54:29;11.80;;;5.73;;
68250;SDS011;55066;51.560;4.642;2023-05-10T07:56:54;16.77;;;6.03;;
68250;SDS011;55066;51.560;4.642;2023-05-10T07:59:27;13.63;;;5.73;;
68250;SDS011;55066;51.560;4.642;2023-05-10T08:01:52;11.35;;;5.20;;
68250;SDS011;55066;51.560;4.642;2023-05-10T08:04:18;9.87;;;4.93;;
68250;SDS011;55066;51.560;4.642;2023-05-10T08:06:43;10.97;;;5.30;;
68250;SDS011;55066;51.560;4.642;2023-05-10T08:09:09;10.48;;;5.10;;
68250;SDS011;55066;51.560;4.642;2023-05-10T08:11:35;9.83;;;4.97;;
68250;SDS011;55066;51.560;4.642;2023-05-10T08:14:01;10.80;;;5.43;;
68250;SDS011;55066;51.560;4.642;2023-05-10T08:16:26;11.17;;;5.87;;
68250;SDS011;55066;51.560;4.642;2023-05-10T08:18:52;14.43;;;6.37;;
68250;SDS011;55066;51.560;4.642;2023-05-10T08:21:20;10.70;;;5.35;;
68250;SDS011;55066;51.560;4.642;2023-05-10T08:23:45;13.40;;;6.10;;
68250;SDS011;55066;51.560;4.642;2023-05-10T08:26:11;11.60;;;5.30;;
68250;SDS011;55066;51.560;4.642;2023-05-10T08:28:37;12.73;;;5.20;;
68250;SDS011;55066;51.560;4.642;2023-05-10T08:31:03;11.57;;;5.20;;
68250;SDS011;55066;51.560;4.642;2023-05-10T08:33:29;9.73;;;5.10;;
68250;SDS011;55066;51.560;4.642;2023-05-10T08:35:55;12.63;;;4.83;;
68250;SDS011;55066;51.560;4.642;2023-05-10T08:38:20;9.13;;;4.68;;
68250;SDS011;55066;51.560;4.642;2023-05-10T08:40:46;10.37;;;4.23;;
68250;SDS011;55066;51.560;4.642;2023-05-10T08:43:13;6.75;;;3.35;;
68250;SDS011;55066;51.560;4.642;2023-05-10T08:45:43;8.90;;;4.00;;
68250;SDS011;55066;51.560;4.642;2023-05-10T08:48:13;9.50;;;3.80;;
68250;SDS011;55066;51.560;4.642;2023-05-10T08:50:39;9.35;;;3.53;;
68250;SDS011;55066;51.560;4.642;2023-05-10T08:53:07;7.63;;;3.72;;
68250;SDS011;55066;51.560;4.642;2023-05-10T08:55:35;7.85;;;4.15;;
68250;SDS011;55066;51.560;4.642;2023-05-10T08:58:05;10.82;;;4.10;;
68250;SDS011;55066;51.560;4.642;2023-05-10T09:00:31;13.27;;;4.63;;
68250;SDS011;55066;51.560;4.642;2023-05-10T09:02:58;9.10;;;4.28;;
68250;SDS011;55066;51.560;4.642;2023-05-10T09:05:24;10.55;;;4.35;;
68250;SDS011;55066;51.560;4.642;2023-05-10T09:07:52;8.00;;;4.05;;
68250;SDS011;55066;51.560;4.642;2023-05-10T09:10:18;9.07;;;4.00;;
68250;SDS011;55066;51.560;4.642;2023-05-10T09:12:48;7.32;;;3.95;;
68250;SDS011;55066;51.560;4.642;2023-05-10T09:15:17;10.27;;;3.90;;
68250;SDS011;55066;51.560;4.642;2023-05-10T09:17:44;7.90;;;4.15;;
68250;SDS011;55066;51.560;4.642;2023-05-10T09:20:10;6.85;;;4.05;;
68250;SDS011;55066;51.560;4.642;2023-05-10T09:22:36;11.03;;;4.03;;
68250;SDS011;55066;51.560;4.642;2023-05-10T09:25:12;9.52;;;4.22;;
68250;SDS011;55066;51.560;4.642;2023-05-10T09:27:44;6.55;;;3.50;;
68250;SDS011;55066;51.560;4.642;2023-05-10T09:30:10;6.83;;;3.03;;
68250;SDS011;55066;51.560;4.642;2023-05-10T09:32:41;6.13;;;3.13;;
68250;SDS011;55066;51.560;4.642;2023-05-10T09:35:12;10.15;;;3.13;;
68250;SDS011;55066;51.560;4.642;2023-05-10T09:37:51;8.88;;;3.53;;
68250;SDS011;55066;51.560;4.642;2023-05-10T09:40:24;4.97;;;2.95;;
68250;SDS011;55066;51.560;4.642;2023-05-10T09:45:19;7.45;;;2.83;;
68250;SDS011;55066;51.560;4.642;2023-05-10T09:47:47;6.68;;;3.30;;
68250;SDS011;55066;51.560;4.642;2023-05-10T09:50:16;7.57;;;3.10;;
68250;SDS011;55066;51.560;4.642;2023-05-10T09:52:49;5.63;;;2.97;;
68250;SDS011;55066;51.560;4.642;2023-05-10T09:55:19;5.90;;;3.20;;
68250;SDS011;55066;51.560;4.642;2023-05-10T09:57:47;5.30;;;2.83;;
68250;SDS011;55066;51.560;4.642;2023-05-10T10:00:17;7.03;;;3.10;;
68250;SDS011;55066;51.560;4.642;2023-05-10T10:02:53;6.63;;;2.70;;
68250;SDS011;55066;51.560;4.642;2023-05-10T10:05:20;8.13;;;3.05;;
68250;SDS011;55066;51.560;4.642;2023-05-10T10:07:52;7.10;;;2.90;;
68250;SDS011;55066;51.560;4.642;2023-05-10T10:10:18;5.20;;;2.65;;
68250;SDS011;55066;51.560;4.642;2023-05-10T10:12:43;6.47;;;2.70;;
68250;SDS011;55066;51.560;4.642;2023-05-10T10:15:11;5.15;;;2.70;;
68250;SDS011;55066;51.560;4.642;2023-05-10T10:17:38;6.22;;;3.00;;
68250;SDS011;55066;51.560;4.642;2023-05-10T10:20:04;5.20;;;3.00;;
68250;SDS011;55066;51.560;4.642;2023-05-10T10:22:31;4.57;;;2.90;;
68250;SDS011;55066;51.560;4.642;2023-05-10T10:24:56;6.38;;;3.20;;
68250;SDS011;55066;51.560;4.642;2023-05-10T10:27:23;5.50;;;2.70;;
68250;SDS011;55066;51.560;4.642;2023-05-10T10:29:58;6.97;;;2.50;;
68250;SDS011;55066;51.560;4.642;2023-05-10T10:32:42;5.53;;;2.60;;
68250;SDS011;55066;51.560;4.642;2023-05-10T10:35:36;7.95;;;2.78;;
68250;SDS011;55066;51.560;4.642;2023-05-10T10:38:03;6.13;;;2.58;;
68250;SDS011;55066;51.560;4.642;2023-05-10T10:40:32;7.23;;;2.53;;
68250;SDS011;55066;51.560;4.642;2023-05-10T10:43:20;6.25;;;2.40;;
68250;SDS011;55066;51.560;4.642;2023-05-10T10:46:09;4.90;;;2.85;;
68250;SDS011;55066;51.560;4.642;2023-05-10T10:48:33;6.13;;;2.67;;
68250;SDS011;55066;51.560;4.642;2023-05-10T10:50:59;8.60;;;2.95;;
68250;SDS011;55066;51.560;4.642;2023-05-10T10:53:26;5.00;;;3.00;;
68250;SDS011;55066;51.560;4.642;2023-05-10T10:56:02;6.93;;;3.22;;
68250;SDS011;55066;51.560;4.642;2023-05-10T10:58:31;11.00;;;4.13;;
68250;SDS011;55066;51.560;4.642;2023-05-10T11:01:08;9.73;;;3.85;;
68250;SDS011;55066;51.560;4.642;2023-05-10T11:03:38;8.20;;;3.83;;
68250;SDS011;55066;51.560;4.642;2023-05-10T11:06:04;6.87;;;3.23;;
68250;SDS011;55066;51.560;4.642;2023-05-10T11:08:33;7.97;;;4.10;;
68250;SDS011;55066;51.560;4.642;2023-05-10T11:11:06;7.68;;;3.72;;
68250;SDS011;55066;51.560;4.642;2023-05-10T11:16:13;7.47;;;3.80;;
68250;SDS011;55066;51.560;4.642;2023-05-10T11:18:39;6.82;;;3.63;;
68250;SDS011;55066;51.560;4.642;2023-05-10T11:21:05;9.45;;;3.45;;
68250;SDS011;55066;51.560;4.642;2023-05-10T11:26:07;7.57;;;3.43;;
68250;SDS011;55066;51.560;4.642;2023-05-10T11:28:45;9.32;;;3.45;;
68250;SDS011;55066;51.560;4.642;2023-05-10T11:31:16;6.97;;;3.60;;
68250;SDS011;55066;51.560;4.642;2023-05-10T11:33:46;8.20;;;3.90;;
68250;SDS011;55066;51.560;4.642;2023-05-10T11:36:20;8.75;;;3.22;;
68250;SDS011;55066;51.560;4.642;2023-05-10T11:38:47;7.07;;;2.97;;
68250;SDS011;55066;51.560;4.642;2023-05-10T11:41:13;6.47;;;2.67;;
68250;SDS011;55066;51.560;4.642;2023-05-10T11:43:40;7.40;;;2.70;;
68250;SDS011;55066;51.560;4.642;2023-05-10T11:46:10;4.75;;;2.20;;
68250;SDS011;55066;51.560;4.642;2023-05-10T11:48:40;5.07;;;2.60;;
68250;SDS011;55066;51.560;4.642;2023-05-10T11:51:07;6.47;;;2.67;;
68250;SDS011;55066;51.560;4.642;2023-05-10T11:53:33;5.75;;;2.45;;
68250;SDS011;55066;51.560;4.642;2023-05-10T11:56:05;7.07;;;2.90;;
68250;SDS011;55066;51.560;4.642;2023-05-10T11:58:36;5.03;;;2.20;;
68250;SDS011;55066;51.560;4.642;2023-05-10T12:01:03;6.03;;;2.50;;
68250;SDS011;55066;51.560;4.642;2023-05-10T12:03:30;4.27;;;2.40;;
68250;SDS011;55066;51.560;4.642;2023-05-10T12:05:58;7.30;;;2.45;;
68250;SDS011;55066;51.560;4.642;2023-05-10T12:08:28;5.00;;;2.58;;
68250;SDS011;55066;51.560;4.642;2023-05-10T12:11:04;6.32;;;3.00;;
68250;SDS011;55066;51.560;4.642;2023-05-10T12:16:19;7.93;;;3.57;;
68250;SDS011;55066;51.560;4.642;2023-05-10T12:18:48;6.18;;;3.30;;
68250;SDS011;55066;51.560;4.642;2023-05-10T12:21:16;7.88;;;3.70;;
68250;SDS011;55066;51.560;4.642;2023-05-10T12:23:43;6.55;;;3.25;;
68250;SDS011;55066;51.560;4.642;2023-05-10T12:26:10;8.18;;;4.00;;
68250;SDS011;55066;51.560;4.642;2023-05-10T12:28:38;7.93;;;4.00;;
68250;SDS011;55066;51.560;4.642;2023-05-10T12:31:06;9.70;;;4.93;;
68250;SDS011;55066;51.560;4.642;2023-05-10T12:33:36;8.07;;;4.15;;
68250;SDS011;55066;51.560;4.642;2023-05-10T12:36:06;6.25;;;3.70;;
68250;SDS011;55066;51.560;4.642;2023-05-10T12:38:36;6.72;;;2.97;;
68250;SDS011;55066;51.560;4.642;2023-05-10T12:41:04;7.07;;;3.70;;
68250;SDS011;55066;51.560;4.642;2023-05-10T12:43:32;6.25;;;3.65;;
68250;SDS011;55066;51.560;4.642;2023-05-10T12:46:10;8.00;;;3.92;;
68250;SDS011;55066;51.560;4.642;2023-05-10T12:48:36;5.43;;;2.88;;
68250;SDS011;55066;51.560;4.642;2023-05-10T12:51:03;5.60;;;2.85;;
68250;SDS011;55066;51.560;4.642;2023-05-10T12:53:30;4.67;;;2.70;;
68250;SDS011;55066;51.560;4.642;2023-05-10T12:55:56;5.80;;;2.65;;
68250;SDS011;55066;51.560;4.642;2023-05-10T12:58:23;5.97;;;2.60;;
68250;SDS011;55066;51.560;4.642;2023-05-10T13:00:51;8.27;;;3.10;;
68250;SDS011;55066;51.560;4.642;2023-05-10T13:03:19;5.20;;;2.60;;
68250;SDS011;55066;51.560;4.642;2023-05-10T13:05:44;5.97;;;2.70;;
68250;SDS011;55066;51.560;4.642;2023-05-10T13:08:10;7.22;;;3.10;;
68250;SDS011;55066;51.560;4.642;2023-05-10T13:10:35;8.93;;;2.90;;
68250;SDS011;55066;51.560;4.642;2023-05-10T13:13:03;5.10;;;2.97;;
68250;SDS011;55066;51.560;4.642;2023-05-10T13:15:30;6.03;;;2.92;;
68250;SDS011;55066;51.560;4.642;2023-05-10T13:17:57;6.32;;;3.00;;
68250;SDS011;55066;51.560;4.642;2023-05-10T13:20:22;4.73;;;2.40;;
68250;SDS011;55066;51.560;4.642;2023-05-10T13:22:47;6.63;;;3.30;;
68250;SDS011;55066;51.560;4.642;2023-05-10T13:25:14;6.63;;;3.10;;
68250;SDS011;55066;51.560;4.642;2023-05-10T13:27:39;5.43;;;3.17;;
68250;SDS011;55066;51.560;4.642;2023-05-10T13:30:06;8.43;;;3.30;;
68250;SDS011;55066;51.560;4.642;2023-05-10T13:32:32;6.85;;;3.40;;
68250;SDS011;55066;51.560;4.642;2023-05-10T13:34:58;8.63;;;3.47;;
68250;SDS011;55066;51.560;4.642;2023-05-10T13:37:23;5.90;;;3.20;;
68250;SDS011;55066;51.560;4.642;2023-05-10T13:39:49;5.93;;;3.15;;
68250;SDS011;55066;51.560;4.642;2023-05-10T13:42:14;7.23;;;3.30;;
68250;SDS011;55066;51.560;4.642;2023-05-10T13:44:41;6.88;;;3.13;;
68250;SDS011;55066;51.560;4.642;2023-05-10T13:47:07;6.67;;;3.20;;
68250;SDS011;55066;51.560;4.642;2023-05-10T13:49:33;7.13;;;3.50;;
68250;SDS011;55066;51.560;4.642;2023-05-10T13:52:01;7.20;;;3.53;;
68250;SDS011;55066;51.560;4.642;2023-05-10T13:54:31;7.22;;;3.63;;
68250;SDS011;55066;51.560;4.642;2023-05-10T13:56:58;6.45;;;3.65;;
68250;SDS011;55066;51.560;4.642;2023-05-10T13:59:24;7.22;;;4.22;;
68250;SDS011;55066;51.560;4.642;2023-05-10T14:01:49;7.97;;;4.10;;
68250;SDS011;55066;51.560;4.642;2023-05-10T14:04:14;6.23;;;4.13;;
68250;SDS011;55066;51.560;4.642;2023-05-10T14:06:40;10.90;;;4.10;;
68250;SDS011;55066;51.560;4.642;2023-05-10T14:09:05;6.77;;;3.73;;
68250;SDS011;55066;51.560;4.642;2023-05-10T14:11:32;7.00;;;4.10;;
68250;SDS011;55066;51.560;4.642;2023-05-10T14:13:59;7.82;;;4.47;;
68250;SDS011;55066;51.560;4.642;2023-05-10T14:16:26;9.35;;;5.05;;
68250;SDS011;55066;51.560;4.642;2023-05-10T14:18:53;9.70;;;4.60;;
68250;SDS011;55066;51.560;4.642;2023-05-10T14:21:20;9.07;;;4.50;;
68250;SDS011;55066;51.560;4.642;2023-05-10T14:23:46;8.37;;;4.33;;
68250;SDS011;55066;51.560;4.642;2023-05-10T14:26:14;11.13;;;5.35;;
68250;SDS011;55066;51.560;4.642;2023-05-10T14:28:40;11.17;;;6.03;;
68250;SDS011;55066;51.560;4.642;2023-05-10T14:31:06;14.73;;;7.10;;
68250;SDS011;55066;51.560;4.642;2023-05-10T14:33:32;12.70;;;6.90;;
68250;SDS011;55066;51.560;4.642;2023-05-10T14:35:57;10.73;;;6.13;;
68250;SDS011;55066;51.560;4.642;2023-05-10T14:38:23;14.70;;;7.53;;
68250;SDS011;55066;51.560;4.642;2023-05-10T14:40:49;10.93;;;6.90;;
68250;SDS011;55066;51.560;4.642;2023-05-10T14:43:17;14.80;;;6.23;;
68250;SDS011;55066;51.560;4.642;2023-05-10T14:45:46;10.32;;;6.10;;
68250;SDS011;55066;51.560;4.642;2023-05-10T14:48:13;11.15;;;6.13;;
68250;SDS011;55066;51.560;4.642;2023-05-10T14:50:43;10.57;;;6.00;;
68250;SDS011;55066;51.560;4.642;2023-05-10T14:53:09;9.65;;;5.93;;
68250;SDS011;55066;51.560;4.642;2023-05-10T14:55:34;11.07;;;6.33;;
68250;SDS011;55066;51.560;4.642;2023-05-10T14:58:02;10.98;;;5.82;;
68250;SDS011;55066;51.560;4.642;2023-05-10T15:00:30;15.57;;;7.13;;
68250;SDS011;55066;51.560;4.642;2023-05-10T15:02:55;12.70;;;5.97;;
68250;SDS011;55066;51.560;4.642;2023-05-10T15:05:21;14.73;;;6.20;;